createdAt,value
2022-09-28T00:01:42.478Z,10.70
2022-09-28T00:04:14.192Z,11.40
2022-09-28T00:06:46.871Z,12.20
2022-09-28T00:09:18.287Z,10.70
2022-09-28T00:11:48.368Z,11.70
2022-09-28T00:14:18.108Z,15.00
2022-09-28T00:16:50.327Z,12.80
2022-09-28T00:19:20.571Z,12.20
2022-09-28T00:21:49.307Z,12.70
2022-09-28T00:24:18.159Z,11.00
2022-09-28T00:26:55.914Z,12.10
2022-09-28T00:29:28.178Z,13.00
2022-09-28T00:32:02.619Z,14.00
2022-09-28T00:34:38.469Z,14.70
2022-09-28T00:37:09.586Z,13.40
2022-09-28T00:39:42.328Z,14.20
2022-09-28T00:42:19.901Z,13.70
2022-09-28T00:44:47.933Z,13.50
2022-09-28T00:47:26.350Z,12.30
2022-09-28T00:50:01.004Z,14.50
2022-09-28T00:52:42.809Z,13.90
2022-09-28T00:55:22.083Z,13.40
2022-09-28T00:58:00.686Z,12.50
2022-09-28T01:00:28.831Z,12.30
2022-09-28T01:03:02.093Z,13.30
2022-09-28T01:05:33.032Z,12.70
2022-09-28T01:08:04.785Z,11.80
2022-09-28T01:10:34.786Z,12.70
2022-09-28T01:13:02.491Z,12.20
2022-09-28T01:15:38.415Z,11.90
2022-09-28T01:18:21.672Z,13.80
2022-09-28T01:24:46.597Z,12.10
2022-09-28T01:27:27.389Z,10.70
2022-09-28T01:30:12.305Z,12.60
2022-09-28T01:32:43.080Z,11.20
2022-09-28T01:35:41.010Z,10.80
2022-09-28T01:38:22.273Z,11.90
2022-09-28T01:40:54.442Z,10.80
2022-09-28T01:43:37.594Z,10.50
2022-09-28T01:46:17.957Z,12.50
2022-09-28T01:49:00.815Z,10.90
2022-09-28T01:51:41.160Z,10.30
2022-09-28T01:54:29.558Z,12.50
2022-09-28T01:57:10.963Z,10.00
2022-09-28T01:59:46.696Z,12.70
2022-09-28T02:02:26.780Z,10.40
2022-09-28T02:05:13.394Z,13.00
2022-09-28T02:08:03.645Z,14.50
2022-09-28T02:10:44.121Z,13.20
2022-09-28T02:13:42.910Z,10.50
2022-09-28T02:16:21.562Z,10.10
2022-09-28T02:18:53.679Z,11.60
2022-09-28T02:21:34.645Z,10.90
2022-09-28T02:24:21.713Z,11.50
2022-09-28T02:26:55.936Z,12.70
2022-09-28T02:29:27.434Z,10.10
2022-09-28T02:31:57.847Z,11.60
2022-09-28T02:34:26.275Z,11.90
2022-09-28T02:36:58.528Z,12.40
2022-09-28T02:39:28.893Z,13.60
2022-09-28T02:42:19.610Z,12.90
2022-09-28T02:45:09.949Z,12.20
2022-09-28T02:47:59.309Z,11.50
2022-09-28T02:50:52.892Z,13.20
2022-09-28T02:53:50.532Z,11.60
2022-09-28T02:56:34.387Z,12.00
2022-09-28T02:59:39.637Z,12.60
2022-09-28T03:02:26.398Z,11.10
2022-09-28T03:05:09.238Z,14.00
2022-09-28T03:08:03.566Z,12.20
2022-09-28T03:10:46.564Z,13.60
2022-09-28T03:13:18.946Z,14.30
2022-09-28T03:15:48.974Z,11.40
2022-09-28T03:18:21.605Z,12.20
2022-09-28T03:20:52.920Z,12.80
2022-09-28T03:23:24.753Z,12.30
2022-09-28T03:25:56.440Z,12.50
2022-09-28T03:28:26.733Z,12.10
2022-09-28T03:30:54.521Z,12.40
2022-09-28T03:33:23.797Z,10.50
2022-09-28T03:35:56.954Z,11.40
2022-09-28T03:38:27.072Z,13.70
2022-09-28T03:41:03.246Z,13.00
2022-09-28T03:43:32.266Z,12.60
2022-09-28T03:46:03.248Z,10.30
2022-09-28T03:48:40.147Z,12.90
2022-09-28T03:51:11.089Z,12.60
2022-09-28T03:53:40.974Z,11.20
2022-09-28T03:56:14.225Z,10.70
2022-09-28T04:01:19.596Z,12.30
2022-09-28T04:03:56.091Z,17.20
2022-09-28T04:06:29.713Z,11.10
2022-09-28T04:11:25.557Z,12.90
2022-09-28T04:13:53.497Z,9.90
2022-09-28T04:16:24.159Z,10.00
2022-09-28T04:19:04.387Z,9.60
2022-09-28T04:21:32.193Z,10.50
2022-09-28T04:24:00.857Z,10.70
2022-09-28T04:26:31.661Z,11.40
2022-09-28T04:29:19.533Z,11.40
2022-09-28T04:31:57.391Z,11.60
2022-09-28T04:34:29.802Z,10.60
2022-09-28T04:36:59.876Z,9.00
2022-09-28T04:39:30.550Z,11.70
2022-09-28T04:41:58.491Z,14.80
2022-09-28T04:44:26.397Z,16.50
2022-09-28T04:47:04.361Z,12.70
2022-09-28T04:49:39.772Z,13.00
2022-09-28T04:52:13.558Z,13.40
2022-09-28T04:54:47.091Z,15.50
2022-09-28T04:57:15.939Z,12.80
2022-09-28T04:59:48.213Z,16.40
2022-09-28T05:02:16.222Z,17.20
2022-09-28T05:04:43.894Z,18.00
2022-09-28T05:07:13.133Z,17.00
2022-09-28T05:09:41.235Z,13.50
2022-09-28T05:12:13.621Z,14.50
2022-09-28T05:14:43.635Z,14.40
2022-09-28T05:17:11.406Z,14.00
2022-09-28T05:19:39.508Z,15.00
2022-09-28T05:22:15.029Z,19.90
2022-09-28T05:24:43.949Z,16.70
2022-09-28T05:27:13.821Z,15.80
2022-09-28T05:29:41.866Z,16.30
2022-09-28T05:32:12.835Z,17.70
2022-09-28T05:34:40.558Z,21.00
2022-09-28T05:37:12.793Z,17.70
2022-09-28T05:39:42.852Z,19.20
2022-09-28T05:42:10.754Z,19.30
2022-09-28T05:44:39.088Z,18.10
2022-09-28T05:47:09.829Z,18.80
2022-09-28T05:49:37.505Z,17.50
2022-09-28T05:52:05.266Z,19.90
2022-09-28T05:54:36.262Z,18.30
2022-09-28T05:57:10.068Z,18.10
2022-09-28T05:59:41.520Z,19.50
2022-09-28T06:02:11.161Z,20.00
2022-09-28T06:04:39.241Z,20.30
2022-09-28T06:07:07.540Z,19.10
2022-09-28T06:09:35.266Z,19.30
2022-09-28T06:12:03.536Z,18.70
2022-09-28T06:14:31.480Z,20.00
2022-09-28T06:16:59.832Z,20.30
2022-09-28T06:19:31.465Z,20.40
2022-09-28T06:21:59.443Z,19.60
2022-09-28T06:24:30.346Z,19.40
2022-09-28T06:26:58.185Z,19.50
2022-09-28T06:29:31.763Z,19.70
2022-09-28T06:31:59.487Z,22.00
2022-09-28T06:34:31.924Z,19.90
2022-09-28T06:36:59.635Z,27.80
2022-09-28T06:39:27.957Z,23.80
2022-09-28T06:41:56.957Z,22.10
2022-09-28T06:44:25.618Z,21.80
2022-09-28T06:46:54.101Z,22.40
2022-09-28T06:49:23.078Z,21.30
2022-09-28T06:51:51.001Z,19.70
2022-09-28T06:54:20.375Z,21.90
2022-09-28T06:56:48.246Z,21.20
2022-09-28T06:59:16.111Z,21.00
2022-09-28T07:01:44.110Z,22.00
2022-09-28T07:04:13.019Z,20.00
2022-09-28T07:06:47.396Z,20.60
2022-09-28T07:09:30.681Z,19.50
2022-09-28T07:12:01.603Z,20.30
2022-09-28T07:14:47.489Z,20.10
2022-09-28T07:17:17.572Z,21.10
2022-09-28T07:19:46.547Z,20.10
2022-09-28T07:22:18.960Z,17.20
2022-09-28T07:24:49.183Z,19.80
2022-09-28T07:27:18.646Z,15.00
2022-09-28T07:29:46.394Z,16.80
2022-09-28T07:32:16.679Z,14.20
2022-09-28T07:34:45.226Z,12.40
2022-09-28T07:37:14.419Z,8.30
2022-09-28T07:40:03.295Z,14.90
2022-09-28T07:42:31.555Z,12.60
2022-09-28T07:45:00.953Z,12.60
2022-09-28T07:47:34.827Z,10.60
2022-09-28T07:50:03.987Z,9.90
2022-09-28T07:52:36.735Z,8.20
2022-09-28T07:55:07.216Z,9.50
2022-09-28T07:57:36.998Z,6.80
2022-09-28T08:00:09.291Z,9.90
2022-09-28T08:02:38.450Z,5.10
2022-09-28T08:05:10.047Z,7.80
2022-09-28T08:07:38.885Z,7.60
2022-09-28T08:10:07.671Z,5.10
2022-09-28T08:12:41.579Z,5.80
2022-09-28T08:15:11.335Z,5.60
2022-09-28T08:17:39.129Z,4.90
2022-09-28T08:20:28.833Z,5.40
2022-09-28T08:23:08.721Z,5.00
2022-09-28T08:25:38.715Z,6.60
2022-09-28T08:28:09.738Z,5.60
2022-09-28T08:30:38.745Z,6.00
2022-09-28T08:33:08.084Z,6.30
2022-09-28T08:35:37.535Z,5.00
2022-09-28T08:38:08.299Z,4.10
2022-09-28T08:41:13.815Z,4.90
2022-09-28T08:43:48.057Z,4.90
2022-09-28T08:46:23.801Z,4.30
2022-09-28T08:49:24.854Z,3.70
2022-09-28T08:52:08.356Z,4.20
2022-09-28T08:55:26.357Z,4.00
2022-09-28T08:58:20.070Z,3.40
2022-09-28T09:00:51.126Z,6.20
2022-09-28T09:03:36.027Z,3.80
2022-09-28T09:08:56.264Z,2.50
2022-09-28T09:11:44.407Z,4.30
2022-09-28T09:14:35.023Z,1.80
2022-09-28T09:17:24.512Z,3.00
2022-09-28T09:20:07.955Z,4.70
2022-09-28T09:25:52.097Z,4.80
2022-09-28T09:28:32.045Z,3.10
2022-09-28T09:31:43.757Z,2.70
2022-09-28T09:34:21.025Z,3.10
2022-09-28T09:37:05.480Z,2.40
2022-09-28T09:39:58.638Z,4.30
2022-09-28T09:42:29.884Z,1.60
2022-09-28T09:45:19.079Z,4.00
2022-09-28T09:47:53.699Z,3.70
2022-09-28T09:50:31.039Z,2.90
2022-09-28T09:53:25.389Z,2.60
2022-09-28T09:55:58.762Z,1.90
2022-09-28T09:58:34.398Z,1.70
2022-09-28T10:01:10.609Z,2.70
2022-09-28T10:03:44.976Z,2.80
2022-09-28T10:06:46.632Z,1.80
2022-09-28T10:09:25.324Z,3.30
2022-09-28T10:11:54.595Z,2.50
2022-09-28T10:14:24.872Z,3.00
2022-09-28T10:16:55.943Z,2.40
2022-09-28T10:19:35.163Z,3.40
2022-09-28T10:22:06.700Z,1.60
2022-09-28T10:24:41.579Z,3.90
2022-09-28T10:27:38.758Z,1.80
2022-09-28T10:30:09.565Z,3.00
2022-09-28T10:32:40.199Z,4.50
2022-09-28T10:35:23.073Z,3.90
2022-09-28T10:37:56.699Z,1.80
2022-09-28T10:40:43.600Z,2.70
2022-09-28T10:43:35.948Z,1.60
2022-09-28T10:46:07.613Z,4.10
2022-09-28T10:48:55.103Z,3.50
2022-09-28T10:51:45.519Z,2.30
2022-09-28T10:54:22.298Z,3.30
2022-09-28T10:56:52.961Z,2.70
2022-09-28T10:59:25.484Z,8.60
2022-09-28T11:01:59.966Z,2.70
2022-09-28T11:04:40.666Z,3.40
2022-09-28T11:07:20.465Z,2.00
2022-09-28T11:09:50.220Z,4.00
2022-09-28T11:12:24.846Z,1.80
2022-09-28T11:15:05.077Z,2.20
2022-09-28T11:17:40.655Z,2.60
2022-09-28T11:20:28.200Z,5.90
2022-09-28T11:23:00.365Z,3.30
2022-09-28T11:25:31.599Z,4.00
2022-09-28T11:28:05.031Z,0.80
2022-09-28T11:33:24.470Z,4.40
2022-09-28T11:36:19.251Z,2.40
2022-09-28T11:39:13.400Z,3.30
2022-09-28T11:44:32.530Z,5.40
2022-09-28T11:47:39.735Z,1.00
2022-09-28T11:50:32.456Z,1.20
2022-09-28T11:53:42.886Z,1.40
2022-09-28T11:56:40.627Z,1.00
2022-09-28T11:59:27.753Z,3.90
2022-09-28T12:02:22.540Z,1.60
2022-09-28T12:05:15.932Z,1.30
2022-09-28T12:07:56.581Z,3.20
2022-09-28T12:10:45.540Z,1.00
2022-09-28T12:13:23.063Z,1.90
2022-09-28T12:16:27.652Z,1.20
2022-09-28T12:21:37.256Z,1.80
2022-09-28T12:24:27.278Z,2.90
2022-09-28T12:27:04.429Z,1.90
2022-09-28T12:29:41.368Z,1.50
2022-09-28T12:32:31.489Z,3.30
2022-09-28T12:35:03.378Z,1.40
2022-09-28T12:37:53.960Z,2.80
2022-09-28T12:40:42.349Z,4.60
2022-09-28T12:43:34.034Z,1.00
2022-09-28T12:46:41.211Z,1.70
2022-09-28T12:52:50.437Z,2.00
2022-09-28T12:56:01.936Z,1.10
2022-09-28T12:58:51.040Z,3.00
2022-09-28T13:01:46.360Z,2.40
2022-09-28T13:04:37.182Z,1.50
2022-09-28T13:07:39.060Z,0.70
2022-09-28T13:10:26.576Z,2.10
2022-09-28T13:13:06.434Z,1.40
2022-09-28T13:15:50.672Z,2.60
2022-09-28T13:18:45.530Z,0.90
2022-09-28T13:21:20.170Z,2.10
2022-09-28T13:24:00.720Z,2.20
2022-09-28T13:26:43.686Z,2.10
2022-09-28T13:29:15.949Z,3.00
2022-09-28T13:31:57.391Z,2.30
2022-09-28T13:34:28.991Z,3.20
2022-09-28T13:37:18.911Z,1.00
2022-09-28T13:39:53.116Z,1.90
2022-09-28T13:42:29.696Z,1.50
2022-09-28T13:45:20.525Z,1.20
2022-09-28T13:47:59.949Z,2.90
2022-09-28T13:50:54.109Z,2.30
2022-09-28T13:53:52.498Z,3.90
2022-09-28T13:56:29.961Z,2.40
2022-09-28T13:59:15.219Z,2.20
2022-09-28T14:01:55.929Z,1.60
2022-09-28T14:04:48.580Z,3.80
2022-09-28T14:07:23.483Z,2.20
2022-09-28T14:10:24.745Z,1.30
2022-09-28T14:12:54.997Z,4.60
2022-09-28T14:15:28.524Z,4.60
2022-09-28T14:18:24.800Z,2.00
2022-09-28T14:21:26.042Z,2.40
2022-09-28T14:24:08.555Z,3.90
2022-09-28T14:26:42.263Z,3.90
2022-09-28T14:29:30.603Z,3.80
2022-09-28T14:32:10.212Z,6.90
2022-09-28T14:34:46.647Z,5.80
2022-09-28T14:37:56.881Z,2.10
2022-09-28T14:40:50.545Z,2.50
2022-09-28T14:43:25.076Z,4.90
2022-09-28T14:46:15.690Z,3.10
2022-09-28T14:49:01.818Z,2.30
2022-09-28T14:51:30.467Z,6.50
2022-09-28T14:54:08.415Z,4.70
2022-09-28T14:56:43.721Z,3.00
2022-09-28T14:59:26.281Z,2.80
2022-09-28T15:04:39.658Z,7.60
2022-09-28T15:07:20.131Z,8.60
2022-09-28T15:09:51.517Z,9.40
2022-09-28T15:12:27.716Z,6.20
2022-09-28T15:14:58.854Z,3.00
2022-09-28T15:17:39.420Z,6.20
2022-09-28T15:20:24.702Z,5.80
2022-09-28T15:22:58.865Z,7.70
2022-09-28T15:25:31.819Z,4.40
2022-09-28T15:30:36.548Z,5.50
2022-09-28T15:33:24.634Z,6.40
2022-09-28T15:36:04.418Z,6.90
2022-09-28T15:38:36.056Z,4.60
2022-09-28T15:41:07.174Z,6.10
2022-09-28T15:43:37.556Z,5.40
2022-09-28T15:46:20.695Z,6.40
2022-09-28T15:48:56.950Z,6.40
2022-09-28T15:51:28.670Z,6.90
2022-09-28T15:54:10.661Z,5.90
2022-09-28T15:56:58.108Z,4.40
2022-09-28T15:59:32.052Z,3.80
2022-09-28T16:02:20.907Z,7.90
2022-09-28T16:04:56.298Z,6.40
2022-09-28T16:07:34.420Z,4.40
2022-09-28T16:10:12.848Z,4.10
2022-09-28T16:13:17.868Z,4.60
2022-09-28T16:15:55.600Z,7.30
2022-09-28T16:18:26.666Z,6.90
2022-09-28T16:21:16.532Z,6.00
2022-09-28T16:23:55.719Z,6.70
2022-09-28T16:26:35.892Z,5.20
2022-09-28T16:29:25.910Z,6.80
2022-09-28T16:31:55.643Z,4.60
2022-09-28T16:34:28.664Z,5.20
2022-09-28T16:36:56.710Z,10.30
2022-09-28T16:39:26.812Z,4.50
2022-09-28T16:42:04.043Z,10.20
2022-09-28T16:44:33.839Z,6.50
2022-09-28T16:47:02.992Z,7.20
2022-09-28T16:49:35.316Z,10.70
2022-09-28T16:52:04.409Z,6.90
2022-09-28T16:54:52.000Z,12.80
2022-09-28T16:57:21.786Z,6.90
2022-09-28T16:59:50.872Z,6.00
2022-09-28T17:05:16.055Z,8.90
2022-09-28T17:07:46.193Z,7.20
2022-09-28T17:10:25.626Z,8.00
2022-09-28T17:12:53.336Z,10.00
2022-09-28T17:15:21.370Z,7.40
2022-09-28T17:17:51.905Z,5.50
2022-09-28T17:20:26.361Z,5.60
2022-09-28T17:22:54.326Z,6.00
2022-09-28T17:25:26.192Z,5.60
2022-09-28T17:27:57.620Z,10.60
2022-09-28T17:30:26.833Z,8.10
2022-09-28T17:32:55.706Z,7.20
2022-09-28T17:35:25.034Z,7.10
2022-09-28T17:37:56.961Z,6.20
2022-09-28T17:40:28.517Z,6.90
2022-09-28T17:42:59.524Z,4.90
2022-09-28T17:45:32.725Z,7.50
2022-09-28T17:48:02.808Z,5.90
2022-09-28T17:50:34.981Z,6.90
2022-09-28T17:53:07.337Z,8.40
2022-09-28T17:55:37.031Z,13.20
2022-09-28T17:58:23.505Z,6.60
2022-09-28T18:00:52.984Z,7.70
2022-09-28T18:03:24.379Z,6.50
2022-09-28T18:06:04.376Z,8.30
2022-09-28T18:08:34.775Z,9.20
2022-09-28T18:11:03.928Z,6.30
2022-09-28T18:13:34.109Z,5.00
2022-09-28T18:16:05.108Z,9.20
2022-09-28T18:18:38.786Z,5.10
2022-09-28T18:21:09.488Z,7.20
2022-09-28T18:23:40.135Z,6.20
2022-09-28T18:26:15.969Z,6.90
2022-09-28T18:28:43.941Z,5.90
2022-09-28T18:31:16.372Z,7.20
2022-09-28T18:33:45.541Z,7.20
2022-09-28T18:36:13.421Z,7.60
2022-09-28T18:38:42.681Z,4.60
2022-09-28T18:41:16.012Z,6.50
2022-09-28T18:43:51.132Z,6.30
2022-09-28T18:46:20.448Z,7.40
2022-09-28T18:48:49.596Z,5.50
2022-09-28T18:51:20.698Z,11.40
2022-09-28T18:53:51.297Z,6.90
2022-09-28T18:56:22.500Z,7.50
2022-09-28T18:58:51.933Z,8.00
2022-09-28T19:01:31.058Z,8.20
2022-09-28T19:04:04.890Z,6.20
2022-09-28T19:06:34.986Z,6.00
2022-09-28T19:09:04.903Z,9.20
2022-09-28T19:11:33.884Z,5.80
2022-09-28T19:14:04.317Z,9.90
2022-09-28T19:16:35.955Z,8.80
2022-09-28T19:19:03.715Z,7.50
2022-09-28T19:21:31.981Z,7.30
2022-09-28T19:24:04.346Z,6.80
2022-09-28T19:29:03.793Z,8.30
2022-09-28T19:31:34.090Z,7.70
2022-09-28T19:34:04.085Z,7.10
2022-09-28T19:36:33.793Z,5.30
2022-09-28T19:39:03.442Z,5.90
2022-09-28T19:41:44.538Z,5.90
2022-09-28T19:44:25.218Z,3.40
2022-09-28T19:47:07.082Z,5.80
2022-09-28T19:49:40.482Z,6.00
2022-09-28T19:52:16.793Z,8.40
2022-09-28T19:54:57.842Z,9.60
2022-09-28T19:57:31.720Z,7.50
2022-09-28T20:00:03.751Z,8.00
2022-09-28T20:02:35.328Z,12.40
2022-09-28T20:05:06.155Z,5.90
2022-09-28T20:07:37.431Z,9.10
2022-09-28T20:10:08.073Z,5.90
2022-09-28T20:12:36.173Z,7.30
2022-09-28T20:15:06.825Z,8.60
2022-09-28T20:17:37.676Z,6.80
2022-09-28T20:20:08.244Z,6.00
2022-09-28T20:22:38.414Z,6.00
2022-09-28T20:25:07.741Z,9.20
2022-09-28T20:27:39.286Z,5.10
2022-09-28T20:30:09.612Z,5.70
2022-09-28T20:32:39.449Z,8.10
2022-09-28T20:35:09.213Z,5.90
2022-09-28T20:37:36.960Z,6.90
2022-09-28T20:40:06.823Z,6.80
2022-09-28T20:42:36.459Z,7.30
2022-09-28T20:45:06.017Z,6.80
2022-09-28T20:47:35.246Z,5.60
2022-09-28T20:50:03.262Z,7.70
2022-09-28T20:52:31.233Z,2.80
2022-09-28T20:55:00.844Z,2.30
2022-09-28T20:57:29.154Z,5.40
2022-09-28T20:59:57.052Z,1.90
2022-09-28T21:02:27.060Z,3.90
2022-09-28T21:04:55.386Z,3.00
2022-09-28T21:07:23.098Z,2.70
2022-09-28T21:09:51.100Z,4.30
2022-09-28T21:12:20.210Z,8.70
2022-09-28T21:14:48.384Z,3.70
2022-09-28T21:17:17.274Z,3.20
2022-09-28T21:19:47.166Z,2.40
2022-09-28T21:22:15.102Z,3.00
2022-09-28T21:24:43.042Z,2.10
2022-09-28T21:27:11.002Z,5.80
2022-09-28T21:29:40.641Z,3.70
2022-09-28T21:32:09.792Z,4.30
2022-09-28T21:34:38.186Z,1.50
2022-09-28T21:37:06.134Z,3.50
2022-09-28T21:39:34.404Z,2.90
2022-09-28T21:42:02.379Z,2.30
2022-09-28T21:44:30.581Z,4.40
2022-09-28T21:46:58.374Z,5.20
2022-09-28T21:49:26.286Z,4.50
2022-09-28T21:51:54.497Z,2.40
2022-09-28T21:54:24.171Z,4.40
2022-09-28T21:56:54.438Z,2.70
2022-09-28T21:59:23.878Z,3.40
2022-09-28T22:01:55.995Z,1.50
2022-09-28T22:04:23.949Z,1.80
2022-09-28T22:06:52.261Z,4.00
2022-09-28T22:09:20.215Z,5.40
2022-09-28T22:11:51.073Z,2.60
2022-09-28T22:14:19.159Z,1.90
2022-09-28T22:16:48.257Z,2.20
2022-09-28T22:19:16.079Z,3.90
2022-09-28T22:21:48.190Z,4.70
2022-09-28T22:24:16.134Z,6.10
2022-09-28T22:26:44.470Z,4.10
2022-09-28T22:29:14.649Z,1.70
2022-09-28T22:31:44.154Z,1.90
2022-09-28T22:34:12.216Z,2.20
2022-09-28T22:36:42.489Z,2.10
2022-09-28T22:39:10.658Z,4.00
2022-09-28T22:41:38.633Z,1.40
2022-09-28T22:44:06.681Z,2.90
2022-09-28T22:46:35.202Z,2.50
2022-09-28T22:49:05.327Z,4.30
2022-09-28T22:51:35.709Z,2.80
2022-09-28T22:54:03.453Z,4.10
2022-09-28T22:56:34.510Z,2.90
2022-09-28T22:59:06.628Z,4.00
2022-09-28T23:04:19.927Z,3.40
2022-09-28T23:06:49.334Z,1.70
2022-09-28T23:09:17.563Z,2.80
2022-09-28T23:11:47.774Z,2.10
2022-09-28T23:14:15.650Z,1.30
2022-09-28T23:16:46.160Z,3.70
2022-09-28T23:19:13.843Z,1.90
2022-09-28T23:21:47.115Z,2.00
2022-09-28T23:24:15.959Z,2.80
2022-09-28T23:26:45.167Z,3.10
2022-09-28T23:29:14.124Z,3.60
2022-09-28T23:31:46.476Z,1.50
2022-09-28T23:34:14.335Z,1.80
2022-09-28T23:36:44.656Z,1.70
2022-09-28T23:39:12.624Z,3.30
2022-09-28T23:41:43.004Z,3.10
2022-09-28T23:44:10.994Z,4.50
2022-09-28T23:46:42.519Z,3.90
2022-09-28T23:49:12.994Z,4.20
2022-09-28T23:51:40.769Z,4.20
2022-09-28T23:54:11.102Z,2.60
2022-09-28T23:56:41.461Z,1.90
2022-09-28T23:59:09.373Z,2.10
